Commercial Point, Ohio
Current Conditions -  °F | °C
As of 3:15 AM on Thursday 27 Nov 2014 (Local Time) from KLCK Reporting Station
Clear Clear  
Wind Chill: 23°   Ceiling: Unl
Heat Index: 28°   Visibility: 7mi
Dew Point: 25°   Wind: 5mph
Humidity: 88%   Direction: 320°NW
Pressure: 30.05"   Gusts: NA
Location:  39.77°N, 83.06°W
Report Text: KLCK 270815Z AUTO 32004KT 7SM CLR M02/M04 A3005 RMK AO2 T10231041
Loading
Personal Weather Stations






























Interactive Weather Map New forecast layout! Learn more

10-Day Weather Forecast

Advertisements
Track Severe Weather on mobile